createdAt,value
2022-11-29T00:02:22.223Z,26.00
2022-11-29T00:04:49.059Z,23.92
2022-11-29T00:07:15.683Z,25.90
2022-11-29T00:09:42.346Z,21.98
2022-11-29T00:12:13.396Z,24.55
2022-11-29T00:14:41.391Z,21.10
2022-11-29T00:17:08.292Z,22.50
2022-11-29T00:19:37.067Z,26.63
2022-11-29T00:22:04.476Z,23.58
2022-11-29T00:24:34.656Z,24.58
2022-11-29T00:27:01.320Z,26.25
2022-11-29T00:29:30.212Z,29.13
2022-11-29T00:31:56.891Z,30.65
2022-11-29T00:34:23.887Z,26.83
2022-11-29T00:36:50.485Z,30.48
2022-11-29T00:39:17.174Z,29.98
2022-11-29T00:41:43.892Z,27.67
2022-11-29T00:44:16.811Z,27.52
2022-11-29T00:46:48.286Z,32.22
2022-11-29T00:49:15.504Z,32.53
2022-11-29T00:51:42.149Z,30.13
2022-11-29T00:54:08.895Z,35.42
2022-11-29T00:56:35.525Z,32.53
2022-11-29T00:59:02.134Z,34.25
2022-11-29T01:01:28.964Z,31.30
2022-11-29T01:03:56.970Z,36.17
2022-11-29T01:06:23.622Z,37.55
2022-11-29T01:08:50.701Z,27.75
2022-11-29T01:11:19.312Z,28.13
2022-11-29T01:13:47.099Z,30.35
2022-11-29T01:16:15.227Z,29.83
2022-11-29T01:18:42.762Z,28.35
2022-11-29T01:21:14.674Z,29.80
2022-11-29T01:23:42.030Z,39.00
2022-11-29T01:26:10.236Z,31.17
2022-11-29T01:28:37.996Z,33.85
2022-11-29T01:31:09.104Z,32.95
2022-11-29T01:33:36.631Z,29.27
2022-11-29T01:36:04.468Z,31.67
2022-11-29T01:38:32.941Z,30.70
2022-11-29T01:41:01.329Z,31.48
2022-11-29T01:43:29.370Z,25.83
2022-11-29T01:45:56.356Z,30.85
2022-11-29T01:48:27.460Z,31.30
2022-11-29T01:50:58.155Z,30.63
2022-11-29T01:53:25.006Z,32.33
2022-11-29T01:55:58.836Z,32.22
2022-11-29T01:58:29.955Z,30.40
2022-11-29T02:00:57.876Z,29.08
2022-11-29T02:03:24.909Z,28.13
2022-11-29T02:05:53.516Z,31.77
2022-11-29T02:08:23.552Z,33.75
2022-11-29T02:11:05.959Z,29.48
2022-11-29T02:13:40.447Z,33.38
2022-11-29T02:16:16.538Z,29.13
2022-11-29T02:18:52.547Z,25.25
2022-11-29T02:21:38.756Z,30.58
2022-11-29T02:24:55.221Z,29.33
2022-11-29T02:27:54.631Z,26.38
2022-11-29T02:30:32.464Z,28.10
2022-11-29T02:33:25.941Z,29.17
2022-11-29T02:36:16.292Z,30.80
2022-11-29T02:39:00.614Z,29.30
2022-11-29T02:41:44.747Z,26.85
2022-11-29T02:44:51.493Z,25.85
2022-11-29T02:47:27.409Z,31.88
2022-11-29T02:50:13.741Z,36.00
2022-11-29T02:52:48.425Z,33.30
2022-11-29T02:55:21.447Z,26.33
2022-11-29T02:57:57.240Z,27.35
2022-11-29T03:00:24.256Z,31.40
2022-11-29T03:02:58.349Z,31.13
2022-11-29T03:05:40.687Z,31.02
2022-11-29T03:08:16.544Z,27.60
2022-11-29T03:10:56.435Z,31.63
2022-11-29T03:13:38.058Z,29.90
2022-11-29T03:16:12.365Z,33.92
2022-11-29T03:18:56.691Z,35.25
2022-11-29T03:21:38.873Z,39.97
2022-11-29T03:24:13.287Z,38.67
2022-11-29T03:26:44.888Z,34.83
2022-11-29T03:29:22.785Z,29.27
2022-11-29T03:31:56.328Z,30.55
2022-11-29T03:34:39.712Z,27.52
2022-11-29T03:37:15.532Z,28.05
2022-11-29T03:39:50.688Z,28.38
2022-11-29T03:42:24.438Z,30.83
2022-11-29T03:44:59.669Z,32.67
2022-11-29T03:47:31.967Z,31.15
2022-11-29T03:50:04.553Z,30.00
2022-11-29T03:52:38.765Z,31.83
2022-11-29T03:55:24.849Z,26.90
2022-11-29T03:58:05.773Z,31.00
2022-11-29T04:00:44.997Z,27.33
2022-11-29T04:03:42.119Z,28.90
2022-11-29T04:06:23.967Z,28.88
2022-11-29T04:09:18.146Z,30.65
2022-11-29T04:12:04.627Z,30.17
2022-11-29T04:14:52.208Z,30.27
2022-11-29T04:17:59.593Z,33.58
2022-11-29T04:20:47.954Z,37.10
2022-11-29T04:23:42.144Z,36.33
2022-11-29T04:26:53.711Z,28.13
2022-11-29T04:29:43.865Z,31.90
2022-11-29T04:32:26.772Z,28.48
2022-11-29T04:35:21.851Z,28.88
2022-11-29T04:38:10.130Z,29.65
2022-11-29T04:40:52.086Z,34.00
2022-11-29T04:43:41.439Z,39.03
2022-11-29T04:46:27.052Z,30.77
2022-11-29T04:49:15.628Z,30.80
2022-11-29T04:52:11.193Z,33.30
2022-11-29T04:54:47.412Z,32.95
2022-11-29T04:57:32.281Z,29.83
2022-11-29T05:00:10.183Z,34.33
2022-11-29T05:02:45.946Z,36.30
2022-11-29T05:05:24.554Z,30.55
2022-11-29T05:08:08.274Z,28.48
2022-11-29T05:13:12.570Z,25.35
2022-11-29T05:16:00.314Z,31.38
2022-11-29T05:18:53.363Z,31.88
2022-11-29T05:21:29.269Z,39.30
2022-11-29T05:24:09.224Z,28.52
2022-11-29T05:26:48.303Z,34.72
2022-11-29T05:29:24.391Z,30.88
2022-11-29T05:32:03.250Z,31.23
2022-11-29T05:34:49.786Z,36.40
2022-11-29T05:37:27.975Z,32.03
2022-11-29T05:40:07.984Z,34.20
2022-11-29T05:43:06.665Z,38.72
2022-11-29T05:45:40.664Z,26.88
2022-11-29T05:48:17.490Z,32.67
2022-11-29T05:50:49.260Z,29.58
2022-11-29T05:55:55.627Z,30.48
2022-11-29T05:58:30.921Z,26.98
2022-11-29T06:01:07.608Z,35.55
2022-11-29T06:03:38.986Z,25.35
2022-11-29T06:06:14.652Z,34.67
2022-11-29T06:08:48.863Z,31.95
2022-11-29T06:11:22.590Z,32.00
2022-11-29T06:14:01.111Z,34.85
2022-11-29T06:16:52.499Z,30.05
2022-11-29T06:19:49.124Z,30.30
2022-11-29T06:22:35.465Z,31.30
2022-11-29T06:25:17.229Z,28.55
2022-11-29T06:27:59.110Z,28.73
2022-11-29T06:30:30.483Z,30.80
2022-11-29T06:33:03.548Z,30.35
2022-11-29T06:35:45.926Z,31.20
2022-11-29T06:38:20.871Z,30.42
2022-11-29T06:40:50.149Z,36.90
2022-11-29T06:43:17.894Z,32.58
2022-11-29T06:45:49.133Z,31.15
2022-11-29T06:48:21.347Z,32.70
2022-11-29T06:50:58.727Z,35.10
2022-11-29T06:53:39.386Z,37.33
2022-11-29T06:56:21.616Z,30.33
2022-11-29T06:58:57.441Z,33.05
2022-11-29T07:01:36.175Z,28.52
2022-11-29T07:04:16.791Z,32.47
2022-11-29T07:06:45.472Z,39.63
2022-11-29T07:09:16.478Z,38.00
2022-11-29T07:11:44.245Z,28.88
2022-11-29T07:14:11.564Z,32.28
2022-11-29T07:16:46.364Z,34.42
2022-11-29T07:19:19.620Z,35.10
2022-11-29T07:21:58.881Z,42.22
2022-11-29T07:24:38.287Z,30.65
2022-11-29T07:27:15.692Z,34.00
2022-11-29T07:29:56.336Z,35.45
2022-11-29T07:32:34.482Z,31.65
2022-11-29T07:35:08.735Z,26.63
2022-11-29T07:37:53.732Z,30.85
2022-11-29T07:40:26.153Z,28.17
2022-11-29T07:43:06.284Z,31.05
2022-11-29T07:45:36.159Z,32.75
2022-11-29T07:48:04.786Z,26.85
2022-11-29T07:50:31.891Z,26.88
2022-11-29T07:53:00.328Z,28.13
2022-11-29T07:55:27.599Z,29.85
2022-11-29T07:57:54.281Z,33.33
2022-11-29T08:00:21.857Z,29.60
2022-11-29T08:02:49.982Z,27.13
2022-11-29T08:05:16.845Z,29.30
2022-11-29T08:07:43.715Z,28.02
2022-11-29T08:10:14.307Z,26.00
2022-11-29T08:12:43.121Z,30.05
2022-11-29T08:15:10.169Z,20.52
2022-11-29T08:17:37.239Z,25.17
2022-11-29T08:20:05.065Z,23.17
2022-11-29T08:22:31.788Z,22.70
2022-11-29T08:24:59.887Z,30.23
2022-11-29T08:27:28.177Z,25.50
2022-11-29T08:29:54.843Z,24.65
2022-11-29T08:32:21.533Z,27.48
2022-11-29T08:34:48.337Z,24.58
2022-11-29T08:37:15.214Z,28.73
2022-11-29T08:39:41.828Z,27.13
2022-11-29T08:42:08.517Z,26.27
2022-11-29T08:44:36.677Z,26.90
2022-11-29T08:47:22.139Z,28.17
2022-11-29T08:50:03.870Z,25.88
2022-11-29T08:52:50.234Z,28.38
2022-11-29T08:55:17.432Z,26.77
2022-11-29T08:57:44.173Z,21.23
2022-11-29T09:00:14.026Z,19.75
2022-11-29T09:02:40.684Z,19.65
2022-11-29T09:05:09.243Z,22.20
2022-11-29T09:07:35.949Z,22.35
2022-11-29T09:10:05.487Z,19.73
2022-11-29T09:12:32.745Z,20.95
2022-11-29T09:14:59.594Z,24.70
2022-11-29T09:17:27.823Z,19.48
2022-11-29T09:19:54.425Z,17.48
2022-11-29T09:22:21.074Z,18.67
2022-11-29T09:24:47.904Z,18.60
2022-11-29T09:27:14.793Z,21.02
2022-11-29T09:29:41.458Z,17.65
2022-11-29T09:32:08.266Z,18.92
2022-11-29T09:34:36.836Z,19.73
2022-11-29T09:37:05.182Z,20.58
2022-11-29T09:39:31.952Z,19.75
2022-11-29T09:42:21.753Z,16.90
2022-11-29T09:45:01.421Z,23.70
2022-11-29T09:47:42.510Z,16.88
2022-11-29T09:50:23.480Z,18.58
2022-11-29T09:52:58.103Z,17.52
2022-11-29T09:55:43.111Z,17.75
2022-11-29T09:58:15.356Z,20.20
2022-11-29T10:00:48.573Z,15.93
2022-11-29T10:03:23.323Z,18.30
2022-11-29T10:05:57.523Z,23.00
2022-11-29T10:08:29.154Z,16.63
2022-11-29T10:11:10.383Z,19.42
2022-11-29T10:13:39.353Z,19.20
2022-11-29T10:16:12.396Z,14.95
2022-11-29T10:18:48.133Z,18.80
2022-11-29T10:21:20.427Z,16.83
2022-11-29T10:23:50.391Z,16.08
2022-11-29T10:26:18.160Z,13.82
2022-11-29T10:28:47.482Z,17.02
2022-11-29T10:31:22.221Z,18.10
2022-11-29T10:33:50.226Z,18.40
2022-11-29T10:36:26.081Z,19.38
2022-11-29T10:38:59.038Z,17.92
2022-11-29T10:41:26.892Z,16.35
2022-11-29T10:43:56.223Z,18.00
2022-11-29T10:46:31.047Z,19.55
2022-11-29T10:48:59.419Z,18.25
2022-11-29T10:51:28.757Z,21.58
2022-11-29T10:53:56.725Z,15.63
2022-11-29T10:56:29.573Z,16.27
2022-11-29T10:58:58.649Z,13.43
2022-11-29T11:01:28.992Z,17.75
2022-11-29T11:03:58.542Z,15.73
2022-11-29T11:06:41.265Z,12.93
2022-11-29T11:09:19.396Z,12.68
2022-11-29T11:11:51.850Z,17.17
2022-11-29T11:14:22.212Z,15.55
2022-11-29T11:16:49.312Z,15.50
2022-11-29T11:19:29.432Z,14.00
2022-11-29T11:21:59.113Z,15.40
2022-11-29T11:24:28.923Z,13.10
2022-11-29T11:26:56.445Z,16.05
2022-11-29T11:29:26.340Z,13.20
2022-11-29T11:31:56.429Z,12.90
2022-11-29T11:34:29.862Z,15.93
2022-11-29T11:39:52.160Z,12.52
2022-11-29T11:42:36.912Z,14.32
2022-11-29T11:45:19.718Z,13.18
2022-11-29T11:47:49.766Z,14.43
2022-11-29T11:50:24.927Z,17.27
2022-11-29T11:52:55.067Z,12.35
2022-11-29T11:55:34.513Z,17.50
2022-11-29T11:58:17.159Z,13.88
2022-11-29T12:01:02.838Z,14.60
2022-11-29T12:03:38.017Z,12.32
2022-11-29T12:06:45.616Z,12.68
2022-11-29T12:09:20.011Z,14.43
2022-11-29T12:11:56.456Z,13.07
2022-11-29T12:14:30.295Z,14.15
2022-11-29T12:17:05.170Z,10.90
2022-11-29T12:19:41.045Z,13.02
2022-11-29T12:22:16.300Z,16.75
2022-11-29T12:24:53.350Z,13.98
2022-11-29T12:27:21.414Z,16.40
2022-11-29T12:29:48.067Z,15.90
2022-11-29T12:32:49.387Z,14.02
2022-11-29T12:35:36.378Z,16.02
2022-11-29T12:38:12.982Z,13.35
2022-11-29T12:40:49.296Z,13.27
2022-11-29T12:43:30.401Z,15.52
2022-11-29T12:46:03.651Z,12.43
2022-11-29T12:48:39.056Z,20.83
2022-11-29T12:51:14.957Z,15.25
2022-11-29T12:53:59.320Z,17.85
2022-11-29T12:56:31.137Z,14.73
2022-11-29T12:59:20.821Z,15.75
2022-11-29T13:04:33.408Z,14.45
2022-11-29T13:07:10.936Z,12.18
2022-11-29T13:09:58.068Z,15.48
2022-11-29T13:12:33.171Z,12.93
2022-11-29T13:15:05.428Z,14.70
2022-11-29T13:17:40.741Z,15.65
2022-11-29T13:20:31.527Z,12.13
2022-11-29T13:23:05.178Z,14.88
2022-11-29T13:25:37.341Z,13.63
2022-11-29T13:28:07.775Z,13.38
2022-11-29T13:30:37.173Z,12.82
2022-11-29T13:33:10.552Z,17.65
2022-11-29T13:35:41.972Z,13.90
2022-11-29T13:38:18.607Z,16.42
2022-11-29T13:40:58.256Z,17.02
2022-11-29T13:43:30.722Z,12.85
2022-11-29T13:46:09.302Z,15.82
2022-11-29T13:48:48.316Z,15.60
2022-11-29T13:51:41.164Z,15.27
2022-11-29T13:54:26.810Z,13.88
2022-11-29T13:57:02.293Z,14.77
2022-11-29T13:59:31.192Z,14.13
2022-11-29T14:01:59.865Z,13.57
2022-11-29T14:04:34.621Z,16.25
2022-11-29T14:07:08.264Z,11.30
2022-11-29T14:09:49.308Z,15.48
2022-11-29T14:12:40.385Z,15.15
2022-11-29T14:15:25.275Z,13.13
2022-11-29T14:17:56.543Z,14.02
2022-11-29T14:20:59.518Z,12.48
2022-11-29T14:23:42.474Z,12.35
2022-11-29T14:26:29.639Z,15.85
2022-11-29T14:29:00.203Z,11.48
2022-11-29T14:31:53.381Z,14.70
2022-11-29T14:34:39.755Z,12.38
2022-11-29T14:37:33.948Z,13.23
2022-11-29T14:40:11.359Z,13.88
2022-11-29T14:42:46.849Z,11.60
2022-11-29T14:45:24.186Z,10.82
2022-11-29T14:47:51.913Z,15.65
2022-11-29T14:50:32.094Z,16.75
2022-11-29T14:52:59.250Z,15.10
2022-11-29T14:55:35.430Z,16.15
2022-11-29T14:58:21.174Z,16.90
2022-11-29T15:01:09.722Z,14.02
2022-11-29T15:03:47.850Z,11.98
2022-11-29T15:06:24.161Z,15.45
2022-11-29T15:08:57.470Z,13.55
2022-11-29T15:11:35.565Z,17.77
2022-11-29T15:14:05.581Z,14.52
2022-11-29T15:16:50.962Z,17.85
2022-11-29T15:19:45.233Z,14.57
2022-11-29T15:22:18.224Z,14.15
2022-11-29T15:24:53.390Z,12.20
2022-11-29T15:27:21.173Z,14.63
2022-11-29T15:29:48.503Z,14.25
2022-11-29T15:32:22.424Z,16.63
2022-11-29T15:34:53.788Z,15.50
2022-11-29T15:37:39.132Z,14.80
2022-11-29T15:40:11.644Z,13.60
2022-11-29T15:42:40.225Z,15.35
2022-11-29T15:45:28.613Z,14.57
2022-11-29T15:48:09.818Z,15.27
2022-11-29T15:50:39.590Z,14.95
2022-11-29T15:53:13.448Z,14.40
2022-11-29T15:55:40.366Z,13.40
2022-11-29T15:58:11.831Z,16.67
2022-11-29T16:00:41.036Z,19.25
2022-11-29T16:03:18.338Z,14.70
2022-11-29T16:05:51.544Z,13.98
2022-11-29T16:08:21.101Z,14.13
2022-11-29T16:10:51.626Z,14.10
2022-11-29T16:13:37.675Z,15.05
2022-11-29T16:16:13.612Z,17.10
2022-11-29T16:18:41.928Z,14.52
2022-11-29T16:21:24.444Z,12.80
2022-11-29T16:23:53.369Z,14.07
2022-11-29T16:26:23.143Z,16.77
2022-11-29T16:28:51.934Z,16.88
2022-11-29T16:31:20.574Z,16.55
2022-11-29T16:33:49.240Z,15.30
2022-11-29T16:36:20.860Z,15.05
2022-11-29T16:38:49.954Z,15.23
2022-11-29T16:41:32.479Z,14.88
2022-11-29T16:44:03.130Z,18.15
2022-11-29T16:46:39.779Z,14.60
2022-11-29T16:49:33.746Z,15.82
2022-11-29T16:52:01.538Z,16.52
2022-11-29T16:54:33.820Z,17.33
2022-11-29T16:57:05.257Z,18.20
2022-11-29T16:59:32.561Z,17.00
2022-11-29T17:01:59.482Z,14.70
2022-11-29T17:04:26.510Z,16.73
2022-11-29T17:06:54.852Z,13.10
2022-11-29T17:09:27.767Z,16.63
2022-11-29T17:11:55.558Z,18.77
2022-11-29T17:14:23.697Z,18.55
2022-11-29T17:16:51.877Z,15.93
2022-11-29T17:19:20.516Z,12.43
2022-11-29T17:21:47.601Z,19.33
2022-11-29T17:24:16.794Z,18.17
2022-11-29T17:26:44.332Z,17.13
2022-11-29T17:29:11.636Z,15.07
2022-11-29T17:31:40.156Z,11.88
2022-11-29T17:34:07.182Z,21.13
2022-11-29T17:36:33.836Z,14.85
2022-11-29T17:39:01.193Z,18.27
2022-11-29T17:41:28.532Z,18.75
2022-11-29T17:43:56.672Z,15.68
2022-11-29T17:46:26.132Z,16.73
2022-11-29T17:48:54.896Z,17.88
2022-11-29T17:51:50.597Z,14.50
2022-11-29T17:54:10.124Z,15.77
2022-11-29T17:56:36.790Z,13.68
2022-11-29T17:59:04.937Z,16.52
2022-11-29T18:01:34.687Z,16.17
2022-11-29T18:04:04.408Z,16.83
2022-11-29T18:06:34.696Z,21.20
2022-11-29T18:09:02.662Z,14.52
2022-11-29T18:11:38.807Z,14.77
2022-11-29T18:14:11.217Z,16.65
2022-11-29T18:16:38.505Z,18.13
2022-11-29T18:19:09.100Z,16.40
2022-11-29T18:21:39.141Z,17.35
2022-11-29T18:24:07.414Z,16.70
2022-11-29T18:26:36.909Z,15.50
2022-11-29T18:29:05.075Z,13.88
2022-11-29T18:31:33.344Z,17.02
2022-11-29T18:34:01.680Z,15.77
2022-11-29T18:36:32.513Z,17.45
2022-11-29T18:39:00.398Z,15.70
2022-11-29T18:41:29.134Z,16.52
2022-11-29T18:43:58.723Z,16.05
2022-11-29T18:46:25.884Z,17.33
2022-11-29T18:48:52.962Z,14.65
2022-11-29T18:51:20.334Z,16.60
2022-11-29T18:53:48.364Z,15.68
2022-11-29T18:56:16.894Z,16.73
2022-11-29T18:58:44.184Z,18.27
2022-11-29T19:01:12.835Z,16.80
2022-11-29T19:03:42.139Z,13.65
2022-11-29T19:06:12.466Z,15.05
2022-11-29T19:08:39.438Z,21.27
2022-11-29T19:11:08.728Z,16.77
2022-11-29T19:13:35.877Z,19.17
2022-11-29T19:16:03.764Z,21.23
2022-11-29T19:18:30.849Z,17.73
2022-11-29T19:21:04.562Z,12.65
2022-11-29T19:23:31.488Z,20.85
2022-11-29T19:26:02.221Z,20.00
2022-11-29T19:28:30.602Z,16.77
2022-11-29T19:30:57.706Z,19.52
2022-11-29T19:33:24.651Z,15.65
2022-11-29T19:35:51.225Z,18.00
2022-11-29T19:38:17.991Z,15.27
2022-11-29T19:40:44.631Z,14.38
2022-11-29T19:43:11.264Z,22.10
2022-11-29T19:45:40.427Z,19.63
2022-11-29T19:48:07.216Z,24.52
2022-11-29T19:50:33.821Z,16.48
2022-11-29T19:53:00.626Z,21.25
2022-11-29T19:55:27.372Z,19.15
2022-11-29T19:57:57.221Z,15.27
2022-11-29T20:00:24.333Z,15.68
2022-11-29T20:02:52.377Z,16.98
2022-11-29T20:05:19.100Z,16.55
2022-11-29T20:07:45.759Z,16.65
2022-11-29T20:10:12.815Z,19.55
2022-11-29T20:12:42.758Z,17.65
2022-11-29T20:15:09.712Z,13.88
2022-11-29T20:17:36.520Z,16.42
2022-11-29T20:20:05.570Z,15.57
2022-11-29T20:22:32.244Z,15.45
2022-11-29T20:24:58.902Z,15.95
2022-11-29T20:27:25.758Z,15.65
2022-11-29T20:29:52.594Z,15.93
2022-11-29T20:32:19.391Z,13.60
2022-11-29T20:34:46.764Z,12.43
2022-11-29T20:37:30.164Z,13.90
2022-11-29T20:40:00.453Z,13.23
2022-11-29T20:42:50.456Z,12.25
2022-11-29T20:45:17.842Z,11.90
2022-11-29T20:47:53.040Z,11.95
2022-11-29T20:50:23.686Z,14.65
2022-11-29T20:53:06.833Z,13.15
2022-11-29T20:55:33.687Z,14.93
2022-11-29T20:58:00.409Z,11.57
2022-11-29T21:00:27.069Z,11.00
2022-11-29T21:02:53.829Z,13.00
2022-11-29T21:05:20.562Z,12.15
2022-11-29T21:07:47.320Z,11.70
2022-11-29T21:10:15.536Z,13.77
2022-11-29T21:12:42.973Z,11.82
2022-11-29T21:15:11.131Z,11.05
2022-11-29T21:17:38.519Z,13.18
2022-11-29T21:20:06.653Z,12.23
2022-11-29T21:22:40.630Z,14.70
2022-11-29T21:25:15.530Z,12.63
2022-11-29T21:27:44.167Z,13.07
2022-11-29T21:30:17.822Z,14.27
2022-11-29T21:32:45.737Z,12.52
2022-11-29T21:35:12.416Z,13.25
2022-11-29T21:37:39.250Z,14.73
2022-11-29T21:40:07.692Z,13.55
2022-11-29T21:42:34.373Z,13.02
2022-11-29T21:45:02.533Z,14.13
2022-11-29T21:47:30.504Z,14.88
2022-11-29T21:49:57.348Z,17.35
2022-11-29T21:52:23.994Z,13.73
2022-11-29T21:54:50.660Z,15.23
2022-11-29T21:57:17.492Z,14.38
2022-11-29T21:59:44.169Z,15.15
2022-11-29T22:02:12.553Z,13.77
2022-11-29T22:04:39.231Z,14.85
2022-11-29T22:07:05.805Z,16.08
2022-11-29T22:09:32.519Z,12.52
2022-11-29T22:11:59.342Z,12.35
2022-11-29T22:14:25.994Z,12.95
2022-11-29T22:16:54.632Z,13.18
2022-11-29T22:19:24.490Z,13.05
2022-11-29T22:21:53.555Z,13.30
2022-11-29T22:24:22.053Z,17.27
2022-11-29T22:26:49.818Z,14.00
2022-11-29T22:29:17.089Z,15.48
2022-11-29T22:31:45.715Z,17.95
2022-11-29T22:34:12.831Z,14.52
2022-11-29T22:36:41.585Z,17.92
2022-11-29T22:39:09.237Z,17.98
2022-11-29T22:41:38.636Z,16.63
2022-11-29T22:44:06.074Z,13.32
2022-11-29T22:46:35.399Z,16.15
2022-11-29T22:49:03.174Z,15.73
2022-11-29T22:51:31.497Z,13.10
2022-11-29T22:54:01.309Z,15.60
2022-11-29T22:56:30.195Z,14.95
2022-11-29T22:58:57.070Z,14.63
2022-11-29T23:01:25.214Z,15.30
2022-11-29T23:04:00.705Z,16.55
2022-11-29T23:06:29.320Z,17.13
2022-11-29T23:08:57.856Z,14.27
2022-11-29T23:11:27.621Z,14.48
2022-11-29T23:13:55.236Z,15.07
2022-11-29T23:16:25.484Z,15.63
2022-11-29T23:18:53.176Z,16.13
2022-11-29T23:21:21.666Z,15.10
2022-11-29T23:23:53.048Z,15.70
2022-11-29T23:26:25.976Z,14.57
2022-11-29T23:28:53.917Z,17.10
2022-11-29T23:31:22.198Z,17.15
2022-11-29T23:33:49.305Z,14.13
2022-11-29T23:36:16.732Z,15.75
2022-11-29T23:38:43.979Z,13.55
2022-11-29T23:41:11.762Z,14.05
2022-11-29T23:43:41.574Z,15.73
2022-11-29T23:46:12.223Z,14.07
2022-11-29T23:48:38.980Z,14.32
2022-11-29T23:51:06.025Z,14.63
2022-11-29T23:53:33.346Z,14.45
2022-11-29T23:56:01.985Z,15.98
2022-11-29T23:58:30.217Z,12.82
